Time;durP1;ratioP1;P1;durP2;ratioP2;P2;SDS_P1;SDS_P2;PMS_P1;PMS_P2;Temp;Humidity;BMP_temperature;BMP_pressure;BME280_temperature;BME280_humidity;BME280_pressure;Samples;Min_cycle;Max_cycle;Signal;HPM_P1;HPM_P2
2023/09/17 00:00:23;;;;;;;19.80;17.45;;;;;;;16.44;100.00;101362.19;4971044;28;20031;-76
2023/09/17 00:02:49;;;;;;;20.80;16.70;;;;;;;16.41;100.00;101359.81;4954236;28;20031;-76
2023/09/17 00:05:14;;;;;;;18.75;16.23;;;;;;;16.32;100.00;101350.94;5037442;28;20047;-76
2023/09/17 00:07:40;;;;;;;17.13;15.35;;;;;;;16.32;100.00;101361.34;4971019;28;20110;-77
2023/09/17 00:10:06;;;;;;;17.38;15.48;;;;;;;16.30;100.00;101360.66;4970983;28;20026;-77
2023/09/17 00:12:31;;;;;;;17.70;15.48;;;;;;;16.23;100.00;101364.72;4970887;28;20035;-77
2023/09/17 00:14:57;;;;;;;19.20;14.30;;;;;;;16.18;100.00;101361.63;4970832;28;20023;-78
2023/09/17 00:17:23;;;;;;;18.80;14.13;;;;;;;16.16;100.00;101356.53;4971048;28;20076;-77
2023/09/17 00:19:48;;;;;;;17.33;15.52;;;;;;;16.14;100.00;101345.41;4970908;28;20033;-78
2023/09/17 00:22:14;;;;;;;16.35;14.65;;;;;;;16.13;100.00;101342.94;4971042;28;20034;-78
2023/09/17 00:24:41;;;;;;;15.43;13.70;;;;;;;15.97;100.00;101325.88;4971418;28;20430;-78
2023/09/17 00:27:06;;;;;;;16.13;12.88;;;;;;;16.06;100.00;101335.56;4974493;28;20034;-78
2023/09/17 00:29:32;;;;;;;15.45;13.70;;;;;;;15.92;100.00;101319.34;4974306;28;20026;-77
2023/09/17 00:31:57;;;;;;;14.73;13.15;;;;;;;16.00;100.00;101333.44;4974503;28;20030;-78
2023/09/17 00:34:22;;;;;;;14.45;12.90;;;;;;;15.96;100.00;101326.00;5014460;28;20445;-77
2023/09/17 00:36:47;;;;;;;16.85;12.70;;;;;;;15.86;100.00;101312.03;5036369;28;20043;-77
2023/09/17 00:39:13;;;;;;;16.08;13.38;;;;;;;15.90;100.00;101319.47;5036085;28;20112;-75
2023/09/17 00:41:38;;;;;;;13.98;12.52;;;;;;;15.89;100.00;101323.03;5036209;28;20076;-75
2023/09/17 00:44:04;;;;;;;14.13;12.60;;;;;;;15.93;100.00;101328.84;5036015;28;20049;-75
2023/09/17 00:46:31;;;;;;;14.13;12.68;;;;;;;15.95;100.00;101329.56;5035916;28;20055;-76
2023/09/17 00:48:58;;;;;;;15.88;12.55;;;;;;;15.78;100.00;101310.84;5035760;28;20052;-74
2023/09/17 00:51:24;;;;;;;14.23;12.65;;;;;;;15.93;100.00;101339.25;5035699;28;20128;-75
2023/09/17 00:53:50;;;;;;;17.45;13.32;;;;;;;15.97;100.00;101341.50;5035622;28;20099;-75
2023/09/17 00:56:15;;;;;;;15.80;13.38;;;;;;;15.99;100.00;101343.97;5034336;28;20470;-76
2023/09/17 00:58:41;;;;;;;13.68;12.25;;;;;;;15.86;100.00;101322.44;5035848;28;20355;-74
2023/09/17 01:01:08;;;;;;;15.15;12.25;;;;;;;15.95;100.00;101348.63;5035670;28;20033;-75
2023/09/17 01:03:36;;;;;;;15.95;13.05;;;;;;;16.00;100.00;101351.69;5035550;28;20033;-75
2023/09/17 01:06:03;;;;;;;15.05;13.55;;;;;;;15.82;100.00;101323.63;5033867;28;20053;-76
2023/09/17 01:08:28;;;;;;;14.35;12.85;;;;;;;15.93;100.00;101334.88;5035254;28;20493;-75
2023/09/17 01:10:55;;;;;;;14.77;12.20;;;;;;;15.80;100.00;101335.94;5035687;28;20037;-75
2023/09/17 01:13:21;;;;;;;16.20;14.07;;;;;;;15.73;100.00;101338.16;5035556;28;20029;-76
2023/09/17 01:15:46;;;;;;;17.08;13.77;;;;;;;15.52;100.00;101337.16;5035494;28;20108;-76
2023/09/17 01:18:12;;;;;;;17.33;15.15;;;;;;;15.23;100.00;101321.13;5035376;28;20108;-76
2023/09/17 01:20:52;;;;;;;17.20;15.02;;;;;;;15.10;100.00;101324.66;5035189;28;20043;-76
2023/09/17 01:23:47;;;;;;;19.73;15.55;;;;;;;14.91;100.00;101306.16;5035420;28;20475;-76
2023/09/17 01:26:26;;;;;;;19.92;16.95;;;;;;;14.81;100.00;101315.56;5033736;28;20047;-75
2023/09/17 01:28:54;;;;;;;19.90;16.90;;;;;;;14.78;100.00;101318.41;5033983;28;20029;-75
2023/09/17 01:31:23;;;;;;;19.85;17.77;;;;;;;14.67;100.00;101290.59;5035530;28;20021;-76
2023/09/17 01:33:49;;;;;;;21.25;19.02;;;;;;;14.77;100.00;101301.97;5003423;28;20046;-75
2023/09/17 01:36:20;;;;;;;22.42;18.77;;;;;;;14.74;100.00;101303.94;4971625;28;20561;-75
2023/09/17 01:38:50;;;;;;;24.20;21.13;;;;;;;14.50;100.00;101250.22;4971911;28;20031;-75
2023/09/17 01:41:17;;;;;;;22.50;20.05;;;;;;;14.67;100.00;101284.56;4971959;28;20030;-75
2023/09/17 01:43:44;;;;;;;23.88;20.10;;;;;;;14.68;100.00;101297.44;4971915;28;20023;-74
2023/09/17 01:46:10;;;;;;;25.42;21.02;;;;;;;14.64;100.00;101301.19;4972139;28;20027;-75
2023/09/17 01:48:37;;;;;;;25.42;21.13;;;;;;;14.53;100.00;101281.16;4972070;28;20030;-75
2023/09/17 01:51:03;;;;;;;23.63;21.13;;;;;;;14.67;100.00;101294.94;4971789;28;20034;-75
2023/09/17 01:53:28;;;;;;;25.05;22.20;;;;;;;14.53;100.00;101281.16;4954496;28;20047;-76
2023/09/17 01:55:56;;;;;;;23.65;20.77;;;;;;;14.58;100.00;101291.25;4971966;28;20108;-75
2023/09/17 01:58:22;;;;;;;25.90;21.83;;;;;;;14.57;100.00;101280.03;4972064;28;20023;-75
2023/09/17 02:00:49;;;;;;;26.83;21.80;;;;;;;14.52;100.00;101265.69;4971670;28;20104;-75
2023/09/17 02:03:15;;;;;;;26.83;23.33;;;;;;;14.51;100.00;101266.63;4971777;28;20038;-75
2023/09/17 02:05:40;;;;;;;27.55;22.73;;;;;;;14.56;100.00;101283.56;4971644;28;20027;-76
2023/09/17 02:08:05;;;;;;;25.63;22.88;;;;;;;14.56;100.00;101272.34;4971810;28;20102;-74
2023/09/17 02:10:31;;;;;;;26.20;22.77;;;;;;;14.46;100.00;101266.16;4971663;28;20472;-75
2023/09/17 02:12:56;;;;;;;26.25;22.95;;;;;;;14.55;100.00;101276.72;4971471;28;20026;-75
2023/09/17 02:15:21;;;;;;;25.98;23.08;;;;;;;14.46;100.00;101266.97;4971695;28;20106;-75
2023/09/17 02:17:50;;;;;;;26.20;23.35;;;;;;;14.45;100.00;101259.28;4971427;28;20031;-75
2023/09/17 02:20:16;;;;;;;29.67;25.10;;;;;;;14.57;100.00;101279.19;4971780;28;20022;-75
2023/09/17 02:22:41;;;;;;;30.67;25.50;;;;;;;14.55;100.00;101271.50;4971308;28;20026;-75
2023/09/17 02:25:07;;;;;;;28.00;25.00;;;;;;;14.45;100.00;101265.28;4971627;28;20584;-75
2023/09/17 02:27:33;;;;;;;29.15;25.40;;;;;;;14.53;100.00;101278.56;4971387;28;20023;-76
2023/09/17 02:29:59;;;;;;;27.90;24.90;;;;;;;14.38;100.00;101258.03;4971262;28;20030;-75
2023/09/17 02:32:25;;;;;;;27.10;24.05;;;;;;;14.37;100.00;101259.00;4971334;28;20568;-75
2023/09/17 02:34:51;;;;;;;28.48;25.48;;;;;;;14.35;100.00;101253.88;4935151;28;1079136;-75
2023/09/17 02:37:16;;;;;;;28.10;24.40;;;;;;;14.46;100.00;101274.78;4972200;28;20059;-75
2023/09/17 02:39:41;;;;;;;28.67;24.95;;;;;;;14.32;100.00;101238.50;4972373;28;20062;-75
2023/09/17 02:42:07;;;;;;;29.77;25.13;;;;;;;14.40;100.00;101244.00;4972295;28;20031;-77
2023/09/17 02:44:32;;;;;;;29.25;25.38;;;;;;;14.32;100.00;101233.31;4972078;28;20037;-75
2023/09/17 02:46:57;;;;;;;30.60;26.15;;;;;;;14.36;100.00;101234.78;4971559;28;20027;-75
2023/09/17 02:49:23;;;;;;;30.08;25.33;;;;;;;14.47;100.00;101253.03;4971786;28;20492;-75
2023/09/17 02:51:51;;;;;;;27.42;24.50;;;;;;;14.33;100.00;101227.19;4971968;28;20081;-75
2023/09/17 02:54:17;;;;;;;26.20;23.27;;;;;;;14.42;100.00;101236.09;4971812;28;20034;-73
2023/09/17 02:56:42;;;;;;;27.45;24.50;;;;;;;14.40;100.00;101244.00;4972100;28;20031;-75
2023/09/17 02:59:08;;;;;;;26.45;23.35;;;;;;;14.31;100.00;101237.69;4971705;28;20037;-75
2023/09/17 03:01:33;;;;;;;23.63;21.23;;;;;;;14.12;100.00;101215.75;4971969;28;20027;-75
2023/09/17 03:04:00;;;;;;;23.50;21.10;;;;;;;14.20;100.00;101226.41;4972179;28;20479;-76
2023/09/17 03:06:26;;;;;;;23.50;21.00;;;;;;;14.07;100.00;101216.09;4971686;28;20110;-76
2023/09/17 03:08:51;;;;;;;23.73;21.05;;;;;;;14.00;100.00;101217.44;4971937;28;20121;-75
2023/09/17 03:11:17;;;;;;;24.77;20.77;;;;;;;13.91;100.00;101221.53;4971391;28;20035;-76
2023/09/17 03:13:46;;;;;;;23.95;21.35;;;;;;;13.65;100.00;101175.81;4971434;28;20498;-75
2023/09/17 03:16:15;;;;;;;22.73;20.33;;;;;;;13.91;100.00;101218.09;4971601;28;20027;-75
2023/09/17 03:18:43;;;;;;;28.45;23.15;;;;;;;13.74;100.00;101199.34;4971632;28;20019;-76
2023/09/17 03:21:09;;;;;;;30.88;23.42;;;;;;;13.81;100.00;101223.09;4971548;28;20027;-77
2023/09/17 03:23:35;;;;;;;29.08;24.50;;;;;;;13.80;100.00;101218.03;4971456;28;20031;-75
2023/09/17 03:26:01;;;;;;;27.88;24.88;;;;;;;13.69;100.00;101203.22;4971465;28;20019;-75
2023/09/17 03:28:28;;;;;;;33.75;26.85;;;;;;;13.73;100.00;101215.03;4971285;28;20026;-74
2023/09/17 03:30:54;;;;;;;34.92;27.60;;;;;;;13.63;100.00;101220.03;4971329;28;20055;-74
2023/09/17 03:33:19;;;;;;;32.97;28.05;;;;;;;13.74;100.00;101229.66;4971290;28;20568;-75
2023/09/17 03:35:46;;;;;;;32.17;28.33;;;;;;;13.66;100.00;101232.78;4971476;28;20073;-75
2023/09/17 03:38:11;;;;;;;33.28;28.83;;;;;;;13.68;100.00;101228.34;4971408;28;20026;-76
2023/09/17 03:40:36;;;;;;;37.92;30.23;;;;;;;13.58;100.00;101216.13;4971115;28;20031;-74
2023/09/17 03:43:02;;;;;;;34.97;29.98;;;;;;;13.65;100.00;101227.69;4971195;28;20510;-73
2023/09/17 03:45:27;;;;;;;39.33;31.15;;;;;;;13.66;100.00;101226.75;4970832;28;20027;-74
2023/09/17 03:47:53;;;;;;;33.80;29.45;;;;;;;13.46;100.00;101190.06;4971406;28;20062;-74
2023/09/17 03:50:18;;;;;;;37.15;31.60;;;;;;;13.72;100.00;101226.34;4971513;28;20026;-74
2023/09/17 03:52:46;;;;;;;38.15;31.30;;;;;;;13.33;100.00;101171.09;4971071;28;20114;-74
2023/09/17 03:55:13;;;;;;;38.88;32.80;;;;;;;13.69;100.00;101218.78;4953280;28;20034;-74
2023/09/17 03:57:39;;;;;;;39.50;32.45;;;;;;;13.74;100.00;101219.28;4970826;28;20495;-75
2023/09/17 04:00:07;;;;;;;35.53;31.10;;;;;;;13.72;100.00;101221.16;4970895;28;20027;-75
2023/09/17 04:02:37;;;;;;;36.53;31.08;;;;;;;13.58;100.00;101191.00;4970895;28;20398;-74
2023/09/17 04:05:09;;;;;;;37.63;32.00;;;;;;;13.69;100.00;101209.22;4971029;28;20037;-74
2023/09/17 04:07:34;;;;;;;40.85;32.58;;;;;;;13.58;100.00;101191.00;4970776;28;20031;-75
2023/09/17 04:10:00;;;;;;;43.67;33.08;;;;;;;13.71;100.00;101207.34;4970699;28;20084;-75
2023/09/17 04:12:25;;;;;;;42.15;34.35;;;;;;;13.89;100.00;101225.19;4971068;28;20025;-75
2023/09/17 04:14:50;;;;;;;40.50;33.28;;;;;;;13.92;100.00;101222.34;4970962;28;20057;-75
2023/09/17 04:17:16;;;;;;;40.22;34.05;;;;;;;13.83;100.00;101208.25;4970638;28;20479;-75
2023/09/17 04:19:41;;;;;;;39.75;33.60;;;;;;;13.93;100.00;101217.03;4970827;28;20035;-75
2023/09/17 04:22:07;;;;;;;40.35;34.00;;;;;;;13.87;100.00;101207.13;4953321;28;20560;-77
2023/09/17 04:24:32;;;;;;;40.65;33.75;;;;;;;13.92;100.00;101212.78;4970667;28;20031;-77
2023/09/17 04:26:57;;;;;;;38.60;33.63;;;;;;;13.92;100.00;101210.19;4970786;28;20369;-76
2023/09/17 04:29:23;;;;;;;40.35;33.88;;;;;;;13.87;100.00;101196.72;4970702;28;20019;-76
2023/09/17 04:31:51;;;;;;;43.65;34.42;;;;;;;14.01;100.00;101212.16;4970726;28;20085;-75
2023/09/17 04:34:17;;;;;;;40.95;33.95;;;;;;;13.98;100.00;101203.75;4970374;28;20130;-75
2023/09/17 04:36:43;;;;;;;42.35;34.35;;;;;;;14.09;100.00;101215.97;4970593;28;20113;-76
2023/09/17 04:39:10;;;;;;;45.25;35.38;;;;;;;14.06;100.00;101214.44;4970350;28;20102;-76
2023/09/17 04:41:35;;;;;;;41.30;34.28;;;;;;;14.09;100.00;101221.16;4970494;28;20031;-75
2023/09/17 04:44:03;;;;;;;43.13;35.15;;;;;;;14.03;100.00;101201.66;4970482;28;20027;-76
2023/09/17 04:46:29;;;;;;;41.53;33.90;;;;;;;14.15;100.00;101215.50;4970438;28;20027;-75
2023/09/17 04:48:55;;;;;;;40.22;33.58;;;;;;;13.99;100.00;101192.44;4970723;28;20030;-76
2023/09/17 04:51:21;;;;;;;40.15;33.30;;;;;;;13.99;100.00;101180.28;4970544;28;20023;-76
2023/09/17 04:53:46;;;;;;;39.42;35.10;;;;;;;14.15;100.00;101202.53;4970210;28;20476;-75
2023/09/17 04:56:12;;;;;;;43.53;36.05;;;;;;;14.22;100.00;101208.94;4970372;28;20407;-75
2023/09/17 04:58:38;;;;;;;42.33;35.35;;;;;;;14.16;100.00;101204.19;4970380;28;20118;-75
2023/09/17 05:01:06;;;;;;;41.20;34.42;;;;;;;14.22;100.00;101212.38;4970217;28;20027;-76
2023/09/17 05:03:31;;;;;;;40.67;34.08;;;;;;;14.18;100.00;101195.38;4970380;28;20042;-75
2023/09/17 05:05:57;;;;;;;40.78;35.53;;;;;;;14.20;100.00;101206.47;4952631;28;20039;-75
2023/09/17 05:08:22;;;;;;;42.90;34.88;;;;;;;14.26;100.00;101207.81;4970308;28;20472;-76
2023/09/17 05:10:48;;;;;;;45.05;35.67;;;;;;;14.25;100.00;101206.94;4970938;28;20042;-76
2023/09/17 05:13:14;;;;;;;41.33;35.33;;;;;;;14.29;100.00;101213.59;4973453;28;20460;-75
2023/09/17 05:15:39;;;;;;;40.03;35.13;;;;;;;14.31;100.00;101210.88;4973434;28;20129;-75
2023/09/17 05:18:09;;;;;;;42.78;36.50;;;;;;;14.32;100.00;101215.13;4973157;28;20035;-75
2023/09/17 05:20:35;;;;;;;42.45;35.90;;;;;;;14.30;100.00;101210.06;4973438;28;20365;-75
2023/09/17 05:23:00;;;;;;;43.67;36.25;;;;;;;14.32;100.00;101215.13;4973315;28;20053;-74
2023/09/17 05:25:26;;;;;;;43.67;36.63;;;;;;;14.19;100.00;101191.00;4973363;28;20027;-75
2023/09/17 05:28:06;;;;;;;43.65;37.38;;;;;;;14.23;100.00;101182.03;4973245;28;20022;-78
2023/09/17 05:30:36;;;;;;;44.20;38.08;;;;;;;14.23;100.00;101189.81;4973208;28;20026;-78
2023/09/17 05:33:04;;;;;;;43.92;37.78;;;;;;;14.44;100.00;101227.22;4970953;28;20047;-78
2023/09/17 05:35:30;;;;;;;47.17;37.65;;;;;;;14.30;100.00;101191.03;4971907;28;20043;-78
2023/09/17 05:38:11;;;;;;;45.78;38.50;;;;;;;14.39;100.00;101203.38;4973102;28;20038;-79
2023/09/17 05:40:48;;;;;;;52.22;40.42;;;;;;;13.53;100.00;101052.13;4972729;28;20394;-78
2023/09/17 05:43:26;;;;;;;47.72;38.50;;;;;;;13.73;100.00;101090.44;4973154;28;20364;-79
2023/09/17 05:46:09;;;;;;;46.10;39.80;;;;;;;13.59;100.00;101072.47;4973061;28;20495;-79
2023/09/17 05:48:47;;;;;;;48.08;40.65;;;;;;;14.50;100.00;101210.41;4972893;28;20487;-79
2023/09/17 05:51:17;;;;;;;52.45;40.53;;;;;;;14.29;100.00;101176.41;4955748;28;20375;-78
2023/09/17 05:53:42;;;;;;;49.85;40.58;;;;;;;13.61;100.00;101061.03;4955238;28;20076;-78
2023/09/17 05:56:07;;;;;;;49.20;41.08;;;;;;;14.00;100.00;101126.56;4973220;28;20463;-78
2023/09/17 05:58:54;;;;;;;48.67;39.45;;;;;;;14.69;100.00;101231.50;4973086;28;20027;-78
2023/09/17 06:01:37;;;;;;;49.47;39.85;;;;;;;14.10;100.00;101134.53;4972897;28;20438;-78
2023/09/17 06:04:02;;;;;;;45.88;37.70;;;;;;;13.91;100.00;101102.09;4972685;28;20476;-78
2023/09/17 06:06:35;;;;;;;49.10;39.38;;;;;;;14.69;100.00;101241.06;4972823;28;20034;-79
2023/09/17 06:09:01;;;;;;;48.53;39.22;;;;;;;13.69;100.00;101056.09;4972569;28;20023;-79
2023/09/17 06:11:26;;;;;;;49.67;40.60;;;;;;;14.00;100.00;101105.81;4955583;28;20088;-78
2023/09/17 06:13:51;;;;;;;49.58;40.60;;;;;;;14.75;100.00;101223.25;4972910;28;20035;-79
2023/09/17 06:16:17;;;;;;;52.30;39.90;;;;;;;14.65;100.00;101204.09;4972756;28;20027;-78
2023/09/17 06:18:42;;;;;;;48.50;40.33;;;;;;;14.80;100.00;101220.31;4972848;28;20045;-78
2023/09/17 06:21:08;;;;;;;50.65;39.72;;;;;;;14.62;100.00;101194.72;4972580;28;20034;-79
2023/09/17 06:23:33;;;;;;;51.80;40.75;;;;;;;14.71;100.00;101206.22;4971300;28;20107;-79
2023/09/17 06:25:59;;;;;;;53.03;41.47;;;;;;;14.51;100.00;101162.69;4972751;28;20035;-77
2023/09/17 06:28:24;;;;;;;52.70;41.08;;;;;;;14.98;100.00;101218.94;4972522;28;20097;-75
2023/09/17 06:30:50;;;;;;;52.33;42.38;;;;;;;14.87;100.00;101203.31;4972140;28;20027;-75
2023/09/17 06:33:15;;;;;;;49.88;40.10;;;;;;;14.99;100.00;101207.59;4972230;28;20034;-75
2023/09/17 06:35:40;;;;;;;51.30;42.13;;;;;;;15.07;100.00;101218.25;4972012;28;20130;-75
2023/09/17 06:38:06;;;;;;;49.10;41.67;;;;;;;15.12;100.00;101220.47;4971940;28;20034;-74
2023/09/17 06:40:33;;;;;;;54.13;42.28;;;;;;;15.13;100.00;101215.16;4972249;28;20018;-77
2023/09/17 06:43:07;;;;;;;53.60;42.42;;;;;;;15.19;100.00;101216.47;4954859;28;20031;-78
2023/09/17 06:45:32;;;;;;;52.90;41.25;;;;;;;15.12;100.00;101197.91;4972006;28;20026;-78
2023/09/17 06:47:58;;;;;;;53.97;42.30;;;;;;;15.08;100.00;101183.47;4962502;28;20073;-77
2023/09/17 06:51:31;;;;;;;55.67;43.78;;;;;;;15.33;100.00;101221.44;4941884;23;20456;-76
2023/09/17 06:53:59;;;;;;;51.92;42.53;;;;;;;14.40;100.00;101072.50;4944373;23;20043;-77
2023/09/17 06:56:37;;;;;;;56.67;42.75;;;;;;;14.93;100.00;101154.25;4990827;28;20399;-77
2023/09/17 06:59:28;;;;;;;55.45;43.50;;;;;;;15.19;100.00;101193.91;4973439;28;20034;-78
2023/09/17 07:02:18;;;;;;;;;;;;;;;15.44;100.00;101226.69;4992426;28;20048;-79
2023/09/17 07:10:41;;;;;;;51.83;41.13;;;;;;;15.57;100.00;101215.31;4970483;28;20504;-76
2023/09/17 07:13:06;;;;;;;57.03;43.40;;;;;;;15.35;100.00;101177.13;4971577;28;20030;-76
2023/09/17 07:15:32;;;;;;;54.22;43.45;;;;;;;15.66;100.00;101228.47;4971653;28;20054;-76
2023/09/17 07:17:57;;;;;;;58.03;43.30;;;;;;;15.68;100.00;101228.34;4972008;28;20102;-75
2023/09/17 07:20:22;;;;;;;58.08;44.20;;;;;;;15.63;100.00;101207.03;4971978;28;20038;-75
2023/09/17 07:22:51;;;;;;;56.03;43.03;;;;;;;15.55;100.00;101193.78;4971466;28;20027;-76
2023/09/17 07:25:16;;;;;;;55.70;42.50;;;;;;;15.75;100.00;101232.13;4971305;28;20468;-75
2023/09/17 07:27:41;;;;;;;53.83;43.17;;;;;;;15.71;100.00;101208.09;4971348;28;20038;-75
2023/09/17 07:30:17;;;;;;;60.55;44.92;;;;;;;15.77;100.00;101225.84;4971417;28;20111;-74
2023/09/17 07:32:42;;;;;;;55.00;43.08;;;;;;;15.63;100.00;101201.84;4971244;28;20037;-73
2023/09/17 07:35:08;;;;;;;58.08;42.95;;;;;;;15.80;100.00;101218.75;4970855;28;20526;-74
2023/09/17 07:37:33;;;;;;;51.90;42.60;;;;;;;15.73;100.00;101208.84;4971431;28;20058;-75
2023/09/17 07:40:04;;;;;;;57.53;44.28;;;;;;;15.84;100.00;101207.97;4954014;28;20062;-75
2023/09/17 07:42:30;;;;;;;56.70;43.78;;;;;;;15.96;100.00;101219.19;4971389;28;20027;-75
2023/09/17 07:44:56;;;;;;;58.78;43.80;;;;;;;15.77;100.00;101173.78;4971284;28;20114;-75
2023/09/17 07:47:21;;;;;;;60.33;45.08;;;;;;;16.09;100.00;101213.84;4971256;28;20027;-76
2023/09/17 07:49:47;;;;;;;58.00;45.13;;;;;;;16.16;100.00;101215.00;4971480;28;20114;-74
2023/09/17 07:52:13;;;;;;;61.22;45.33;;;;;;;16.16;100.00;101209.78;4971228;28;20105;-74
2023/09/17 07:54:39;;;;;;;64.45;46.47;;;;;;;16.32;100.00;101218.00;4970857;28;20548;-74
2023/09/17 07:57:09;;;;;;;61.75;46.85;;;;;;;16.33;100.00;101222.31;4971188;28;20030;-76
2023/09/17 07:59:34;;;;;;;57.80;45.72;;;;;;;16.24;100.00;101213.44;4970955;28;20404;-76
2023/09/17 08:02:01;;;;;;;60.80;46.83;;;;;;;16.21;100.00;101211.06;4971179;28;20031;-76
2023/09/17 08:04:27;;;;;;;56.65;46.15;;;;;;;16.39;100.00;101220.97;4971217;28;20019;-77
2023/09/17 08:06:53;;;;;;;56.00;45.60;;;;;;;16.35;100.00;101220.38;4970985;28;20037;-77
2023/09/17 08:09:18;;;;;;;57.63;44.22;;;;;;;16.21;100.00;101194.59;4970789;28;20039;-77
2023/09/17 08:11:43;;;;;;;60.80;45.78;;;;;;;16.44;100.00;101219.66;4970876;28;20435;-78
2023/09/17 08:14:10;;;;;;;55.55;45.65;;;;;;;16.44;100.00;101227.47;4970954;28;20035;-77
2023/09/17 08:16:36;;;;;;;60.00;45.35;;;;;;;16.52;100.00;101230.28;4970757;28;20030;-75
2023/09/17 08:19:01;;;;;;;58.85;43.75;;;;;;;16.57;100.00;101233.31;4970849;28;20089;-77
2023/09/17 08:21:28;;;;;;;58.45;44.53;;;;;;;16.60;100.00;101240.06;4953594;28;20031;-77
2023/09/17 08:23:53;;;;;;;57.03;45.55;;;;;;;16.58;100.00;101229.75;4970777;28;20027;-78
2023/09/17 08:26:21;;;;;;;58.03;47.17;;;;;;;16.44;100.00;101218.81;4970848;28;20468;-76
2023/09/17 08:28:48;;;;;;;53.72;45.47;;;;;;;16.52;100.00;101232.06;4970752;28;20023;-78
2023/09/17 08:31:14;;;;;;;62.08;48.22;;;;;;;16.58;100.00;101232.38;4970685;28;20063;-75
2023/09/17 08:33:39;;;;;;;64.78;49.13;;;;;;;16.66;100.00;101230.91;4970983;28;20484;-76
2023/09/17 08:36:05;;;;;;;61.35;48.15;;;;;;;16.71;100.00;101229.59;4970701;28;20039;-76
2023/09/17 08:38:31;;;;;;;65.00;48.85;;;;;;;16.57;100.00;101209.03;4970874;28;20019;-75
2023/09/17 08:41:00;;;;;;;60.97;48.65;;;;;;;16.75;100.00;101233.63;4970617;28;20101;-77
2023/09/17 08:43:26;;;;;;;64.28;49.38;;;;;;;16.56;100.00;101200.38;4970574;28;20054;-76
2023/09/17 08:45:52;;;;;;;64.05;50.88;;;;;;;16.78;100.00;101242.97;4954094;28;20089;-76
2023/09/17 08:48:20;;;;;;;63.60;50.85;;;;;;;16.82;100.00;101234.78;4974069;28;20051;-74
2023/09/17 08:50:49;;;;;;;68.38;52.08;;;;;;;16.80;100.00;101230.63;4955541;28;20088;-73
2023/09/17 08:53:19;;;;;;;67.95;50.47;;;;;;;16.93;100.00;101236.50;4954498;29;20452;-75
2023/09/17 08:55:47;;;;;;;73.30;52.63;;;;;;;16.84;100.00;101208.56;4954383;29;20031;-76
2023/09/17 08:58:21;;;;;;;70.22;52.85;;;;;;;16.93;100.00;101223.47;4954479;29;20708;-77
2023/09/17 09:00:50;;;;;;;69.22;51.60;;;;;;;17.10;100.00;101232.47;4954436;29;20033;-79
2023/09/17 09:03:20;;;;;;;70.20;52.67;;;;;;;17.11;100.00;101241.97;4954416;29;20023;-77
2023/09/17 09:05:47;;;;;;;69.90;53.13;;;;;;;17.14;100.00;101249.53;4936623;28;20039;-78
2023/09/17 09:08:13;;;;;;;67.95;52.75;;;;;;;17.24;100.00;101260.84;4954324;29;20058;-78
2023/09/17 09:10:38;;;;;;;68.78;52.17;;;;;;;17.12;100.00;101228.78;4953883;29;20496;-76
2023/09/17 09:13:04;;;;;;;64.88;52.50;;;;;;;17.30;100.00;101251.66;4954020;29;20070;-76
2023/09/17 09:15:30;;;;;;;65.97;51.83;;;;;;;17.29;100.00;101256.06;4954188;29;20038;-76
2023/09/17 09:17:56;;;;;;;67.57;52.92;;;;;;;17.17;100.00;101241.44;4954027;29;20491;-75
2023/09/17 09:20:21;;;;;;;60.22;50.55;;;;;;;17.32;100.00;101261.03;4954000;29;20027;-77
2023/09/17 09:22:47;;;;;;;62.95;50.42;;;;;;;17.24;100.00;101249.59;4954201;29;20137;-77
2023/09/17 09:25:16;;;;;;;63.35;49.47;;;;;;;17.39;100.00;101264.78;4954113;29;20035;-76
2023/09/17 09:27:42;;;;;;;66.57;50.97;;;;;;;17.42;100.00;101253.25;4954165;29;20038;-77
2023/09/17 09:30:10;;;;;;;72.10;52.58;;;;;;;17.39;100.00;101240.44;4953936;29;20396;-76
2023/09/17 09:32:38;;;;;;;68.03;53.38;;;;;;;17.64;100.00;101253.06;4953956;29;20126;-77
2023/09/17 09:35:05;;;;;;;73.38;54.05;;;;;;;17.72;100.00;101255.88;4953801;29;20468;-77
2023/09/17 09:37:31;;;;;;;73.18;54.00;;;;;;;17.90;100.00;101245.63;4937012;29;20097;-79
2023/09/17 09:39:58;;;;;;;70.82;56.72;;;;;;;18.08;100.00;101240.56;4953894;28;20031;-76
2023/09/17 09:42:23;;;;;;;68.63;54.53;;;;;;;18.15;100.00;101225.16;4953631;28;20030;-77
2023/09/17 09:44:53;;;;;;;66.38;53.08;;;;;;;18.28;100.00;101236.19;4954074;28;20031;-76
2023/09/17 09:47:25;;;;;;;62.30;52.10;;;;;;;18.30;100.00;101242.13;4936190;28;20035;-77
2023/09/17 09:49:50;;;;;;;58.80;49.47;;;;;;;18.33;100.00;101245.28;4953758;28;20024;-76
2023/09/17 09:52:17;;;;;;;70.75;52.83;;;;;;;18.35;100.00;101245.97;4953617;29;20039;-77
2023/09/17 09:54:44;;;;;;;70.63;51.88;;;;;;;18.38;100.00;101238.81;4953577;29;20504;-76
2023/09/17 09:57:15;;;;;;;63.72;52.53;;;;;;;18.17;100.00;101208.38;4953355;28;20031;-76
2023/09/17 09:59:46;;;;;;;65.20;50.97;;;;;;;18.34;100.00;101240.88;4953865;28;20027;-79
2023/09/17 10:02:14;;;;;;;62.80;50.83;;;;;;;18.32;100.00;101248.84;4953699;28;20032;-77
2023/09/17 10:04:39;;;;;;;63.80;50.25;;;;;;;18.31;100.00;101241.16;4953714;28;20112;-77
2023/09/17 10:07:07;;;;;;;64.15;49.60;;;;;;;18.27;100.00;101224.06;4953290;29;20059;-76
2023/09/17 10:09:33;;;;;;;61.10;51.22;;;;;;;18.53;100.00;101243.50;4953320;28;20416;-78
2023/09/17 10:11:58;;;;;;;61.80;50.08;;;;;;;18.49;100.00;101223.00;4953292;29;20027;-77
2023/09/17 10:14:25;;;;;;;61.97;50.30;;;;;;;18.50;100.00;101215.00;4953400;28;20027;-76
2023/09/17 10:16:51;;;;;;;59.60;48.95;;;;;;;18.47;100.00;101204.81;4953386;29;20027;-77
2023/09/17 10:19:20;;;;;;;60.70;49.40;;;;;;;18.60;100.00;101217.63;4953672;28;20035;-79
2023/09/17 10:21:50;;;;;;;61.50;48.72;;;;;;;18.73;100.00;101236.50;4953379;29;20035;-77
2023/09/17 10:24:19;;;;;;;54.65;44.42;;;;;;;18.67;100.00;101205.66;4936916;28;20150;-77
2023/09/17 10:26:45;;;;;;;53.47;45.10;;;;;;;18.88;100.00;101226.44;4953335;28;20023;-80
2023/09/17 10:29:15;;;;;;;48.10;41.85;;;;;;;18.84;100.00;101228.47;4953100;29;20039;-78
2023/09/17 10:31:41;;;;;;;50.20;42.25;;;;;;;18.90;100.00;101222.69;4936111;29;20110;-77
2023/09/17 10:34:10;;;;;;;49.80;42.38;;;;;;;18.89;100.00;101228.91;4953145;29;20116;-79
2023/09/17 10:36:38;;;;;;;51.75;41.40;;;;;;;19.00;100.00;101222.69;4953222;29;20027;-77
2023/09/17 10:39:06;;;;;;;49.08;40.35;;;;;;;19.11;100.00;101219.06;4953302;28;20027;-79
2023/09/17 10:41:36;;;;;;;50.10;38.45;;;;;;;19.27;100.00;101224.53;4952889;29;20540;-79
2023/09/17 10:44:03;;;;;;;52.20;41.20;;;;;;;19.46;100.00;101215.75;4954816;28;20054;-79
2023/09/17 10:46:31;;;;;;;45.03;37.72;;;;;;;19.48;100.00;101212.03;4952900;29;20059;-80
2023/09/17 10:48:58;;;;;;;45.40;35.38;;;;;;;19.58;100.00;101224.31;4953036;29;20031;-79
2023/09/17 10:51:32;;;;;;;47.58;36.05;;;;;;;19.49;100.00;101210.25;4952988;28;20023;-77
2023/09/17 10:53:57;;;;;;;43.92;34.10;;;;;;;19.54;100.00;101226.34;4952905;28;20529;-77
2023/09/17 10:56:25;;;;;;;42.17;32.92;;;;;;;19.48;100.00;101222.53;4952534;28;20178;-79
2023/09/17 10:58:53;;;;;;;46.53;34.13;;;;;;;19.60;100.00;101231.03;4952992;29;20133;-79
2023/09/17 11:01:30;;;;;;;46.33;33.13;;;;;;;19.69;100.00;101216.25;4952052;28;20031;-76
2023/09/17 11:04:01;;;;;;;41.17;32.40;;;;;;;19.79;100.00;101224.06;4953654;29;20027;-79
2023/09/17 11:06:29;;;;;;;42.33;32.50;;;;;;;19.94;100.00;101227.81;4953117;28;20033;-77
2023/09/17 11:08:56;;;;;;;41.35;31.70;;;;;;;19.90;100.00;101205.50;4951738;28;20561;-76